sensor_id;sensor_type;location;lat;lon;timestamp;P1;durP1;ratioP1;P2;durP2;ratioP2
12591;SDS011;6361;52.120;5.108;2022-10-16T00:00:16;6.47;;;2.20;;
12591;SDS011;6361;52.120;5.108;2022-10-16T00:02:41;5.13;;;2.40;;
12591;SDS011;6361;52.120;5.108;2022-10-16T00:05:07;6.43;;;2.10;;
12591;SDS011;6361;52.120;5.108;2022-10-16T00:07:32;7.32;;;2.33;;
12591;SDS011;6361;52.120;5.108;2022-10-16T00:09:57;6.40;;;2.13;;
12591;SDS011;6361;52.120;5.108;2022-10-16T00:12:23;9.02;;;2.20;;
12591;SDS011;6361;52.120;5.108;2022-10-16T00:14:48;3.80;;;2.00;;
12591;SDS011;6361;52.120;5.108;2022-10-16T00:17:13;4.85;;;2.35;;
12591;SDS011;6361;52.120;5.108;2022-10-16T00:19:39;6.18;;;2.78;;
12591;SDS011;6361;52.120;5.108;2022-10-16T00:22:04;4.47;;;2.13;;
12591;SDS011;6361;52.120;5.108;2022-10-16T00:24:29;8.90;;;2.67;;
12591;SDS011;6361;52.120;5.108;2022-10-16T00:26:55;7.38;;;2.38;;
12591;SDS011;6361;52.120;5.108;2022-10-16T00:29:20;4.55;;;2.38;;
12591;SDS011;6361;52.120;5.108;2022-10-16T00:31:45;7.57;;;2.58;;
12591;SDS011;6361;52.120;5.108;2022-10-16T00:34:11;6.38;;;2.40;;
12591;SDS011;6361;52.120;5.108;2022-10-16T00:36:36;8.45;;;2.70;;
12591;SDS011;6361;52.120;5.108;2022-10-16T00:39:02;6.18;;;2.22;;
12591;SDS011;6361;52.120;5.108;2022-10-16T00:41:28;6.03;;;2.40;;
12591;SDS011;6361;52.120;5.108;2022-10-16T00:44:00;8.02;;;2.58;;
12591;SDS011;6361;52.120;5.108;2022-10-16T00:46:39;5.78;;;2.58;;
12591;SDS011;6361;52.120;5.108;2022-10-16T00:49:10;4.25;;;2.22;;
12591;SDS011;6361;52.120;5.108;2022-10-16T00:52:13;3.78;;;2.40;;
12591;SDS011;6361;52.120;5.108;2022-10-16T00:54:31;6.53;;;2.38;;
12591;SDS011;6361;52.120;5.108;2022-10-16T00:56:58;6.25;;;2.42;;
12591;SDS011;6361;52.120;5.108;2022-10-16T00:59:30;6.97;;;2.38;;
12591;SDS011;6361;52.120;5.108;2022-10-16T01:02:02;5.50;;;2.40;;
12591;SDS011;6361;52.120;5.108;2022-10-16T01:04:34;5.35;;;2.83;;
12591;SDS011;6361;52.120;5.108;2022-10-16T01:12:30;8.98;;;3.53;;
12591;SDS011;6361;52.120;5.108;2022-10-16T01:15:03;7.53;;;2.60;;
12591;SDS011;6361;52.120;5.108;2022-10-16T01:17:49;6.03;;;2.92;;
12591;SDS011;6361;52.120;5.108;2022-10-16T01:22:50;6.60;;;2.75;;
12591;SDS011;6361;52.120;5.108;2022-10-16T01:25:39;8.10;;;3.30;;
12591;SDS011;6361;52.120;5.108;2022-10-16T01:28:10;7.07;;;3.20;;
12591;SDS011;6361;52.120;5.108;2022-10-16T01:30:37;6.72;;;3.30;;
12591;SDS011;6361;52.120;5.108;2022-10-16T01:33:04;10.73;;;2.90;;
12591;SDS011;6361;52.120;5.108;2022-10-16T01:38:04;3.53;;;2.75;;
12591;SDS011;6361;52.120;5.108;2022-10-16T01:40:31;6.28;;;2.80;;
12591;SDS011;6361;52.120;5.108;2022-10-16T01:43:31;7.05;;;2.80;;
12591;SDS011;6361;52.120;5.108;2022-10-16T01:45:50;3.72;;;2.72;;
12591;SDS011;6361;52.120;5.108;2022-10-16T01:48:18;7.93;;;3.10;;
12591;SDS011;6361;52.120;5.108;2022-10-16T01:50:44;6.60;;;3.10;;
12591;SDS011;6361;52.120;5.108;2022-10-16T01:53:13;7.65;;;2.60;;
12591;SDS011;6361;52.120;5.108;2022-10-16T01:55:40;6.05;;;3.10;;
12591;SDS011;6361;52.120;5.108;2022-10-16T01:58:10;5.88;;;3.03;;
12591;SDS011;6361;52.120;5.108;2022-10-16T02:00:38;5.43;;;2.83;;
12591;SDS011;6361;52.120;5.108;2022-10-16T02:03:04;10.00;;;3.08;;
12591;SDS011;6361;52.120;5.108;2022-10-16T02:05:32;6.90;;;3.03;;
12591;SDS011;6361;52.120;5.108;2022-10-16T02:07:58;4.90;;;3.13;;
12591;SDS011;6361;52.120;5.108;2022-10-16T02:10:24;4.53;;;2.90;;
12591;SDS011;6361;52.120;5.108;2022-10-16T02:12:53;7.57;;;3.30;;
12591;SDS011;6361;52.120;5.108;2022-10-16T02:15:22;6.53;;;3.15;;
12591;SDS011;6361;52.120;5.108;2022-10-16T02:17:48;7.20;;;3.22;;
12591;SDS011;6361;52.120;5.108;2022-10-16T02:20:13;5.43;;;3.25;;
12591;SDS011;6361;52.120;5.108;2022-10-16T02:22:40;8.73;;;2.92;;
12591;SDS011;6361;52.120;5.108;2022-10-16T02:25:10;10.25;;;3.60;;
12591;SDS011;6361;52.120;5.108;2022-10-16T02:27:53;7.65;;;3.35;;
12591;SDS011;6361;52.120;5.108;2022-10-16T02:30:30;5.82;;;3.03;;
12591;SDS011;6361;52.120;5.108;2022-10-16T02:35:25;9.00;;;3.67;;
12591;SDS011;6361;52.120;5.108;2022-10-16T02:37:52;7.13;;;3.22;;
12591;SDS011;6361;52.120;5.108;2022-10-16T02:40:17;5.03;;;3.00;;
12591;SDS011;6361;52.120;5.108;2022-10-16T02:42:43;10.35;;;3.10;;
12591;SDS011;6361;52.120;5.108;2022-10-16T02:45:09;5.88;;;3.35;;
12591;SDS011;6361;52.120;5.108;2022-10-16T02:47:35;6.63;;;3.10;;
12591;SDS011;6361;52.120;5.108;2022-10-16T02:50:00;6.30;;;3.45;;
12591;SDS011;6361;52.120;5.108;2022-10-16T02:52:26;4.03;;;3.03;;
12591;SDS011;6361;52.120;5.108;2022-10-16T02:54:51;6.38;;;3.15;;
12591;SDS011;6361;52.120;5.108;2022-10-16T02:57:16;3.75;;;2.85;;
12591;SDS011;6361;52.120;5.108;2022-10-16T02:59:42;3.53;;;2.90;;
12591;SDS011;6361;52.120;5.108;2022-10-16T03:02:08;5.60;;;3.03;;
12591;SDS011;6361;52.120;5.108;2022-10-16T03:04:34;7.55;;;2.92;;
12591;SDS011;6361;52.120;5.108;2022-10-16T03:06:59;5.97;;;3.10;;
12591;SDS011;6361;52.120;5.108;2022-10-16T03:09:24;6.43;;;2.97;;
12591;SDS011;6361;52.120;5.108;2022-10-16T03:11:50;5.78;;;2.45;;
12591;SDS011;6361;52.120;5.108;2022-10-16T03:14:15;4.63;;;2.90;;
12591;SDS011;6361;52.120;5.108;2022-10-16T03:16:40;4.72;;;2.83;;
12591;SDS011;6361;52.120;5.108;2022-10-16T03:19:06;5.93;;;3.15;;
12591;SDS011;6361;52.120;5.108;2022-10-16T03:21:31;6.90;;;2.67;;
12591;SDS011;6361;52.120;5.108;2022-10-16T03:23:56;4.82;;;2.75;;
12591;SDS011;6361;52.120;5.108;2022-10-16T03:26:22;6.50;;;2.60;;
12591;SDS011;6361;52.120;5.108;2022-10-16T03:28:47;6.80;;;2.60;;
12591;SDS011;6361;52.120;5.108;2022-10-16T03:31:12;5.70;;;2.70;;
12591;SDS011;6361;52.120;5.108;2022-10-16T03:33:38;5.30;;;2.42;;
12591;SDS011;6361;52.120;5.108;2022-10-16T03:36:03;4.45;;;2.42;;
12591;SDS011;6361;52.120;5.108;2022-10-16T03:38:28;4.22;;;2.40;;
12591;SDS011;6361;52.120;5.108;2022-10-16T03:40:54;9.65;;;2.72;;
12591;SDS011;6361;52.120;5.108;2022-10-16T03:43:19;6.32;;;2.78;;
12591;SDS011;6361;52.120;5.108;2022-10-16T03:45:44;5.63;;;2.67;;
12591;SDS011;6361;52.120;5.108;2022-10-16T03:48:10;3.45;;;2.53;;
12591;SDS011;6361;52.120;5.108;2022-10-16T03:50:35;5.43;;;2.60;;
12591;SDS011;6361;52.120;5.108;2022-10-16T03:53:01;4.38;;;2.65;;
12591;SDS011;6361;52.120;5.108;2022-10-16T03:55:26;6.93;;;2.58;;
12591;SDS011;6361;52.120;5.108;2022-10-16T03:57:53;5.28;;;2.25;;
12591;SDS011;6361;52.120;5.108;2022-10-16T04:00:18;5.55;;;2.30;;
12591;SDS011;6361;52.120;5.108;2022-10-16T04:02:44;6.60;;;2.75;;
12591;SDS011;6361;52.120;5.108;2022-10-16T04:05:09;4.28;;;2.40;;
12591;SDS011;6361;52.120;5.108;2022-10-16T04:07:34;4.53;;;2.38;;
12591;SDS011;6361;52.120;5.108;2022-10-16T04:10:00;2.78;;;2.30;;
12591;SDS011;6361;52.120;5.108;2022-10-16T04:12:26;3.97;;;2.30;;
12591;SDS011;6361;52.120;5.108;2022-10-16T04:14:51;5.35;;;2.38;;
12591;SDS011;6361;52.120;5.108;2022-10-16T04:17:17;6.97;;;2.33;;
12591;SDS011;6361;52.120;5.108;2022-10-16T04:19:42;4.50;;;2.38;;
12591;SDS011;6361;52.120;5.108;2022-10-16T04:22:07;3.30;;;2.38;;
12591;SDS011;6361;52.120;5.108;2022-10-16T04:24:33;6.65;;;2.58;;
12591;SDS011;6361;52.120;5.108;2022-10-16T04:26:58;7.05;;;2.20;;
12591;SDS011;6361;52.120;5.108;2022-10-16T04:29:24;3.50;;;2.30;;
12591;SDS011;6361;52.120;5.108;2022-10-16T04:31:49;4.45;;;2.20;;
12591;SDS011;6361;52.120;5.108;2022-10-16T04:34:14;3.00;;;2.13;;
12591;SDS011;6361;52.120;5.108;2022-10-16T04:36:40;4.47;;;2.53;;
12591;SDS011;6361;52.120;5.108;2022-10-16T04:39:05;4.93;;;2.42;;
12591;SDS011;6361;52.120;5.108;2022-10-16T04:41:30;5.60;;;2.25;;
12591;SDS011;6361;52.120;5.108;2022-10-16T04:43:56;3.67;;;2.42;;
12591;SDS011;6361;52.120;5.108;2022-10-16T04:46:21;2.88;;;2.33;;
12591;SDS011;6361;52.120;5.108;2022-10-16T04:48:46;4.90;;;2.20;;
12591;SDS011;6361;52.120;5.108;2022-10-16T04:51:12;7.15;;;2.40;;
12591;SDS011;6361;52.120;5.108;2022-10-16T04:53:37;3.95;;;2.80;;
12591;SDS011;6361;52.120;5.108;2022-10-16T04:56:03;6.28;;;2.40;;
12591;SDS011;6361;52.120;5.108;2022-10-16T04:58:28;3.67;;;2.28;;
12591;SDS011;6361;52.120;5.108;2022-10-16T05:00:54;3.47;;;2.60;;
12591;SDS011;6361;52.120;5.108;2022-10-16T05:03:19;5.47;;;2.58;;
12591;SDS011;6361;52.120;5.108;2022-10-16T05:05:45;4.15;;;2.40;;
12591;SDS011;6361;52.120;5.108;2022-10-16T05:08:12;3.85;;;2.50;;
12591;SDS011;6361;52.120;5.108;2022-10-16T05:10:38;7.35;;;2.50;;
12591;SDS011;6361;52.120;5.108;2022-10-16T05:13:03;6.72;;;2.80;;
12591;SDS011;6361;52.120;5.108;2022-10-16T05:15:29;5.97;;;2.47;;
12591;SDS011;6361;52.120;5.108;2022-10-16T05:17:54;6.32;;;2.58;;
12591;SDS011;6361;52.120;5.108;2022-10-16T05:20:20;4.95;;;2.55;;
12591;SDS011;6361;52.120;5.108;2022-10-16T05:22:46;4.13;;;2.42;;
12591;SDS011;6361;52.120;5.108;2022-10-16T05:25:12;5.82;;;2.40;;
12591;SDS011;6361;52.120;5.108;2022-10-16T05:27:37;6.88;;;2.95;;
12591;SDS011;6361;52.120;5.108;2022-10-16T05:30:03;6.97;;;2.85;;
12591;SDS011;6361;52.120;5.108;2022-10-16T05:32:28;7.32;;;3.00;;
12591;SDS011;6361;52.120;5.108;2022-10-16T05:34:54;3.92;;;2.67;;
12591;SDS011;6361;52.120;5.108;2022-10-16T05:37:19;5.82;;;2.88;;
12591;SDS011;6361;52.120;5.108;2022-10-16T05:39:44;6.25;;;2.97;;
12591;SDS011;6361;52.120;5.108;2022-10-16T05:42:10;7.22;;;2.80;;
12591;SDS011;6361;52.120;5.108;2022-10-16T05:44:35;6.78;;;2.70;;
12591;SDS011;6361;52.120;5.108;2022-10-16T05:47:00;6.20;;;2.97;;
12591;SDS011;6361;52.120;5.108;2022-10-16T05:49:26;4.18;;;2.42;;
12591;SDS011;6361;52.120;5.108;2022-10-16T05:51:51;4.78;;;2.72;;
12591;SDS011;6361;52.120;5.108;2022-10-16T05:54:16;5.40;;;2.88;;
12591;SDS011;6361;52.120;5.108;2022-10-16T05:56:42;4.22;;;2.88;;
12591;SDS011;6361;52.120;5.108;2022-10-16T05:59:07;9.73;;;3.03;;
12591;SDS011;6361;52.120;5.108;2022-10-16T06:01:33;7.28;;;3.13;;
12591;SDS011;6361;52.120;5.108;2022-10-16T06:03:58;5.25;;;3.05;;
12591;SDS011;6361;52.120;5.108;2022-10-16T06:06:26;6.43;;;2.85;;
12591;SDS011;6361;52.120;5.108;2022-10-16T06:08:52;7.15;;;3.00;;
12591;SDS011;6361;52.120;5.108;2022-10-16T06:11:19;5.88;;;2.80;;
12591;SDS011;6361;52.120;5.108;2022-10-16T06:13:48;8.23;;;3.38;;
12591;SDS011;6361;52.120;5.108;2022-10-16T06:16:14;6.65;;;3.35;;
12591;SDS011;6361;52.120;5.108;2022-10-16T06:18:40;8.80;;;3.05;;
12591;SDS011;6361;52.120;5.108;2022-10-16T06:21:09;5.47;;;3.15;;
12591;SDS011;6361;52.120;5.108;2022-10-16T06:23:35;5.22;;;3.22;;
12591;SDS011;6361;52.120;5.108;2022-10-16T06:26:04;5.15;;;3.10;;
12591;SDS011;6361;52.120;5.108;2022-10-16T06:28:33;5.95;;;3.05;;
12591;SDS011;6361;52.120;5.108;2022-10-16T06:31:02;6.22;;;3.17;;
12591;SDS011;6361;52.120;5.108;2022-10-16T06:33:28;7.10;;;3.22;;
12591;SDS011;6361;52.120;5.108;2022-10-16T06:35:59;8.18;;;3.60;;
12591;SDS011;6361;52.120;5.108;2022-10-16T06:38:25;7.43;;;3.45;;
12591;SDS011;6361;52.120;5.108;2022-10-16T06:40:52;6.57;;;3.50;;
12591;SDS011;6361;52.120;5.108;2022-10-16T06:43:18;7.00;;;3.40;;
12591;SDS011;6361;52.120;5.108;2022-10-16T06:45:49;10.05;;;3.22;;
12591;SDS011;6361;52.120;5.108;2022-10-16T06:48:16;8.10;;;3.60;;
12591;SDS011;6361;52.120;5.108;2022-10-16T06:50:41;5.93;;;2.90;;
12591;SDS011;6361;52.120;5.108;2022-10-16T06:53:06;4.78;;;2.85;;
12591;SDS011;6361;52.120;5.108;2022-10-16T06:55:32;10.35;;;3.03;;
12591;SDS011;6361;52.120;5.108;2022-10-16T06:57:57;7.45;;;2.60;;
12591;SDS011;6361;52.120;5.108;2022-10-16T07:00:22;8.25;;;2.83;;
12591;SDS011;6361;52.120;5.108;2022-10-16T07:02:48;7.28;;;2.83;;
12591;SDS011;6361;52.120;5.108;2022-10-16T07:05:13;4.65;;;2.28;;
12591;SDS011;6361;52.120;5.108;2022-10-16T07:07:38;4.55;;;2.30;;
12591;SDS011;6361;52.120;5.108;2022-10-16T07:10:04;5.55;;;2.38;;
12591;SDS011;6361;52.120;5.108;2022-10-16T07:12:29;9.00;;;2.45;;
12591;SDS011;6361;52.120;5.108;2022-10-16T07:14:56;6.38;;;2.20;;
12591;SDS011;6361;52.120;5.108;2022-10-16T07:17:21;10.05;;;3.08;;
12591;SDS011;6361;52.120;5.108;2022-10-16T07:19:46;7.72;;;2.22;;
12591;SDS011;6361;52.120;5.108;2022-10-16T07:22:12;5.20;;;1.85;;
12591;SDS011;6361;52.120;5.108;2022-10-16T07:24:37;5.80;;;2.40;;
12591;SDS011;6361;52.120;5.108;2022-10-16T07:27:02;5.97;;;1.85;;
12591;SDS011;6361;52.120;5.108;2022-10-16T07:29:28;5.88;;;1.95;;
12591;SDS011;6361;52.120;5.108;2022-10-16T07:31:53;6.13;;;2.00;;
12591;SDS011;6361;52.120;5.108;2022-10-16T07:34:18;7.50;;;2.20;;
12591;SDS011;6361;52.120;5.108;2022-10-16T07:36:49;5.07;;;2.10;;
12591;SDS011;6361;52.120;5.108;2022-10-16T07:39:15;6.22;;;2.38;;
12591;SDS011;6361;52.120;5.108;2022-10-16T07:41:41;5.43;;;1.98;;
12591;SDS011;6361;52.120;5.108;2022-10-16T07:44:06;6.72;;;2.53;;
12591;SDS011;6361;52.120;5.108;2022-10-16T07:46:32;4.47;;;2.08;;
12591;SDS011;6361;52.120;5.108;2022-10-16T07:48:59;7.00;;;2.42;;
12591;SDS011;6361;52.120;5.108;2022-10-16T07:51:24;6.80;;;2.88;;
12591;SDS011;6361;52.120;5.108;2022-10-16T07:53:51;5.10;;;3.25;;
12591;SDS011;6361;52.120;5.108;2022-10-16T07:56:17;7.75;;;2.97;;
12591;SDS011;6361;52.120;5.108;2022-10-16T07:58:43;4.55;;;2.83;;
12591;SDS011;6361;52.120;5.108;2022-10-16T08:01:10;5.47;;;3.10;;
12591;SDS011;6361;52.120;5.108;2022-10-16T08:03:38;9.00;;;3.17;;
12591;SDS011;6361;52.120;5.108;2022-10-16T08:06:06;5.75;;;3.00;;
12591;SDS011;6361;52.120;5.108;2022-10-16T08:08:34;8.50;;;3.83;;
12591;SDS011;6361;52.120;5.108;2022-10-16T08:11:00;10.05;;;3.20;;
12591;SDS011;6361;52.120;5.108;2022-10-16T08:13:28;8.10;;;3.08;;
12591;SDS011;6361;52.120;5.108;2022-10-16T08:15:53;12.48;;;3.30;;
12591;SDS011;6361;52.120;5.108;2022-10-16T08:18:19;7.55;;;3.00;;
12591;SDS011;6361;52.120;5.108;2022-10-16T08:20:44;8.52;;;3.22;;
12591;SDS011;6361;52.120;5.108;2022-10-16T08:23:13;10.00;;;2.95;;
12591;SDS011;6361;52.120;5.108;2022-10-16T08:25:39;8.65;;;3.20;;
12591;SDS011;6361;52.120;5.108;2022-10-16T08:28:06;7.22;;;2.85;;
12591;SDS011;6361;52.120;5.108;2022-10-16T08:30:32;7.55;;;3.20;;
12591;SDS011;6361;52.120;5.108;2022-10-16T08:32:58;5.05;;;2.65;;
12591;SDS011;6361;52.120;5.108;2022-10-16T08:35:24;6.93;;;2.80;;
12591;SDS011;6361;52.120;5.108;2022-10-16T08:37:49;6.22;;;2.60;;
12591;SDS011;6361;52.120;5.108;2022-10-16T08:40:25;5.22;;;2.72;;
12591;SDS011;6361;52.120;5.108;2022-10-16T08:42:55;11.50;;;2.92;;
12591;SDS011;6361;52.120;5.108;2022-10-16T08:48:40;8.77;;;2.70;;
12591;SDS011;6361;52.120;5.108;2022-10-16T08:51:22;7.93;;;2.47;;
12591;SDS011;6361;52.120;5.108;2022-10-16T08:56:25;6.88;;;2.50;;
12591;SDS011;6361;52.120;5.108;2022-10-16T08:58:51;10.05;;;3.08;;
12591;SDS011;6361;52.120;5.108;2022-10-16T09:01:17;11.07;;;2.60;;
12591;SDS011;6361;52.120;5.108;2022-10-16T09:18:00;8.95;;;3.05;;
12591;SDS011;6361;52.120;5.108;2022-10-16T09:20:31;10.45;;;2.83;;
12591;SDS011;6361;52.120;5.108;2022-10-16T09:25:29;11.03;;;2.90;;
12591;SDS011;6361;52.120;5.108;2022-10-16T09:27:55;9.27;;;2.90;;
12591;SDS011;6361;52.120;5.108;2022-10-16T09:30:21;10.55;;;2.78;;
12591;SDS011;6361;52.120;5.108;2022-10-16T09:32:49;11.77;;;2.80;;
12591;SDS011;6361;52.120;5.108;2022-10-16T09:35:16;8.82;;;2.53;;
12591;SDS011;6361;52.120;5.108;2022-10-16T09:37:45;14.00;;;3.92;;
12591;SDS011;6361;52.120;5.108;2022-10-16T09:40:13;15.02;;;3.28;;
12591;SDS011;6361;52.120;5.108;2022-10-16T09:42:51;12.90;;;2.95;;
12591;SDS011;6361;52.120;5.108;2022-10-16T09:45:22;11.20;;;2.50;;
12591;SDS011;6361;52.120;5.108;2022-10-16T09:47:48;14.07;;;2.70;;
12591;SDS011;6361;52.120;5.108;2022-10-16T09:50:26;11.48;;;2.42;;
12591;SDS011;6361;52.120;5.108;2022-10-16T09:53:03;11.23;;;2.70;;
12591;SDS011;6361;52.120;5.108;2022-10-16T09:55:35;11.07;;;2.50;;
12591;SDS011;6361;52.120;5.108;2022-10-16T09:58:01;8.32;;;2.90;;
12591;SDS011;6361;52.120;5.108;2022-10-16T10:00:26;12.93;;;2.58;;
12591;SDS011;6361;52.120;5.108;2022-10-16T10:02:52;11.07;;;2.80;;
12591;SDS011;6361;52.120;5.108;2022-10-16T10:05:25;9.32;;;3.03;;
12591;SDS011;6361;52.120;5.108;2022-10-16T10:07:56;15.77;;;3.05;;
12591;SDS011;6361;52.120;5.108;2022-10-16T10:10:24;16.08;;;3.55;;
12591;SDS011;6361;52.120;5.108;2022-10-16T10:12:52;13.20;;;2.97;;
12591;SDS011;6361;52.120;5.108;2022-10-16T10:15:18;14.80;;;2.80;;
12591;SDS011;6361;52.120;5.108;2022-10-16T10:17:47;11.50;;;2.80;;
12591;SDS011;6361;52.120;5.108;2022-10-16T10:22:59;20.70;;;2.95;;
12591;SDS011;6361;52.120;5.108;2022-10-16T10:38:44;15.70;;;2.78;;
12591;SDS011;6361;52.120;5.108;2022-10-16T10:46:31;15.40;;;2.55;;
12591;SDS011;6361;52.120;5.108;2022-10-16T10:57:15;20.75;;;2.63;;
12591;SDS011;6361;52.120;5.108;2022-10-16T11:07:40;12.35;;;2.63;;
12591;SDS011;6361;52.120;5.108;2022-10-16T11:10:16;15.73;;;3.08;;
12591;SDS011;6361;52.120;5.108;2022-10-16T11:12:46;14.27;;;2.97;;
12591;SDS011;6361;52.120;5.108;2022-10-16T11:17:50;10.43;;;2.20;;
12591;SDS011;6361;52.120;5.108;2022-10-16T11:20:23;12.05;;;2.58;;
12591;SDS011;6361;52.120;5.108;2022-10-16T11:25:35;11.10;;;2.40;;
12591;SDS011;6361;52.120;5.108;2022-10-16T11:30:46;16.73;;;2.70;;
12591;SDS011;6361;52.120;5.108;2022-10-16T11:35:50;12.25;;;2.72;;
12591;SDS011;6361;52.120;5.108;2022-10-16T11:38:34;15.25;;;2.97;;
12591;SDS011;6361;52.120;5.108;2022-10-16T11:46:51;10.13;;;1.90;;
12591;SDS011;6361;52.120;5.108;2022-10-16T11:49:39;11.65;;;2.50;;
12591;SDS011;6361;52.120;5.108;2022-10-16T11:55:20;14.43;;;2.67;;
12591;SDS011;6361;52.120;5.108;2022-10-16T11:58:20;12.65;;;2.30;;
12591;SDS011;6361;52.120;5.108;2022-10-16T12:08:58;14.25;;;2.33;;
12591;SDS011;6361;52.120;5.108;2022-10-16T12:16:37;11.30;;;2.20;;
12591;SDS011;6361;52.120;5.108;2022-10-16T12:19:13;10.98;;;2.10;;
12591;SDS011;6361;52.120;5.108;2022-10-16T12:21:41;10.55;;;2.70;;
12591;SDS011;6361;52.120;5.108;2022-10-16T12:24:07;7.70;;;2.10;;
12591;SDS011;6361;52.120;5.108;2022-10-16T12:26:55;12.05;;;2.47;;
12591;SDS011;6361;52.120;5.108;2022-10-16T12:31:46;10.10;;;1.70;;
12591;SDS011;6361;52.120;5.108;2022-10-16T12:34:23;10.85;;;1.80;;
12591;SDS011;6361;52.120;5.108;2022-10-16T12:37:11;11.23;;;2.03;;
12591;SDS011;6361;52.120;5.108;2022-10-16T12:39:55;10.75;;;2.20;;
12591;SDS011;6361;52.120;5.108;2022-10-16T12:42:23;16.42;;;2.55;;
12591;SDS011;6361;52.120;5.108;2022-10-16T12:44:51;8.82;;;1.80;;
12591;SDS011;6361;52.120;5.108;2022-10-16T12:47:21;14.52;;;2.03;;
12591;SDS011;6361;52.120;5.108;2022-10-16T12:49:52;11.98;;;2.45;;
12591;SDS011;6361;52.120;5.108;2022-10-16T12:52:29;9.98;;;1.90;;
12591;SDS011;6361;52.120;5.108;2022-10-16T12:55:02;10.48;;;1.70;;
12591;SDS011;6361;52.120;5.108;2022-10-16T13:00:24;9.98;;;1.60;;
12591;SDS011;6361;52.120;5.108;2022-10-16T13:22:55;9.60;;;2.08;;
12591;SDS011;6361;52.120;5.108;2022-10-16T13:30:31;9.75;;;1.88;;
12591;SDS011;6361;52.120;5.108;2022-10-16T13:33:18;12.05;;;1.88;;
12591;SDS011;6361;52.120;5.108;2022-10-16T13:35:50;11.27;;;1.53;;
12591;SDS011;6361;52.120;5.108;2022-10-16T13:38:18;11.20;;;1.67;;
12591;SDS011;6361;52.120;5.108;2022-10-16T13:40:49;9.60;;;1.73;;
12591;SDS011;6361;52.120;5.108;2022-10-16T13:43:14;14.35;;;2.00;;
12591;SDS011;6361;52.120;5.108;2022-10-16T13:45:51;14.80;;;1.98;;
12591;SDS011;6361;52.120;5.108;2022-10-16T13:48:28;15.25;;;2.35;;
12591;SDS011;6361;52.120;5.108;2022-10-16T13:53:26;13.00;;;2.20;;
12591;SDS011;6361;52.120;5.108;2022-10-16T13:55:52;13.32;;;2.28;;
12591;SDS011;6361;52.120;5.108;2022-10-16T13:58:17;12.07;;;2.17;;
12591;SDS011;6361;52.120;5.108;2022-10-16T14:00:56;11.85;;;2.08;;
12591;SDS011;6361;52.120;5.108;2022-10-16T14:03:23;13.15;;;2.10;;
12591;SDS011;6361;52.120;5.108;2022-10-16T14:05:51;14.77;;;2.10;;
12591;SDS011;6361;52.120;5.108;2022-10-16T14:08:18;10.82;;;2.00;;
12591;SDS011;6361;52.120;5.108;2022-10-16T14:10:47;17.33;;;2.03;;
12591;SDS011;6361;52.120;5.108;2022-10-16T14:13:15;9.60;;;2.22;;
12591;SDS011;6361;52.120;5.108;2022-10-16T14:15:45;14.25;;;2.30;;
12591;SDS011;6361;52.120;5.108;2022-10-16T14:18:20;18.02;;;2.13;;
12591;SDS011;6361;52.120;5.108;2022-10-16T14:20:46;11.20;;;1.83;;
12591;SDS011;6361;52.120;5.108;2022-10-16T14:23:20;14.23;;;4.25;;
12591;SDS011;6361;52.120;5.108;2022-10-16T14:30:48;9.80;;;2.15;;
12591;SDS011;6361;52.120;5.108;2022-10-16T14:33:22;14.40;;;2.50;;
12591;SDS011;6361;52.120;5.108;2022-10-16T14:38:34;12.07;;;2.50;;
12591;SDS011;6361;52.120;5.108;2022-10-16T14:41:01;12.13;;;2.38;;
12591;SDS011;6361;52.120;5.108;2022-10-16T14:46:02;13.75;;;2.30;;
12591;SDS011;6361;52.120;5.108;2022-10-16T14:48:30;10.98;;;2.20;;
12591;SDS011;6361;52.120;5.108;2022-10-16T14:50:56;13.13;;;2.10;;
12591;SDS011;6361;52.120;5.108;2022-10-16T14:53:21;14.13;;;2.28;;
12591;SDS011;6361;52.120;5.108;2022-10-16T14:55:47;13.65;;;2.42;;
12591;SDS011;6361;52.120;5.108;2022-10-16T14:58:17;11.38;;;2.40;;
12591;SDS011;6361;52.120;5.108;2022-10-16T15:00:44;15.68;;;2.45;;
12591;SDS011;6361;52.120;5.108;2022-10-16T15:03:10;9.15;;;2.35;;
12591;SDS011;6361;52.120;5.108;2022-10-16T15:05:35;14.68;;;2.55;;
12591;SDS011;6361;52.120;5.108;2022-10-16T15:08:01;11.70;;;2.80;;
12591;SDS011;6361;52.120;5.108;2022-10-16T15:10:27;12.68;;;2.60;;
12591;SDS011;6361;52.120;5.108;2022-10-16T15:12:54;9.07;;;2.05;;
12591;SDS011;6361;52.120;5.108;2022-10-16T15:17:48;11.35;;;2.47;;
12591;SDS011;6361;52.120;5.108;2022-10-16T15:20:17;12.55;;;2.80;;
12591;SDS011;6361;52.120;5.108;2022-10-16T15:22:42;14.73;;;3.00;;
12591;SDS011;6361;52.120;5.108;2022-10-16T15:28:07;13.10;;;2.72;;
12591;SDS011;6361;52.120;5.108;2022-10-16T15:30:33;12.82;;;2.50;;
12591;SDS011;6361;52.120;5.108;2022-10-16T15:32:58;10.85;;;2.70;;
12591;SDS011;6361;52.120;5.108;2022-10-16T15:35:24;13.30;;;2.38;;
12591;SDS011;6361;52.120;5.108;2022-10-16T15:37:49;11.85;;;2.58;;
12591;SDS011;6361;52.120;5.108;2022-10-16T15:40:15;10.38;;;2.40;;
12591;SDS011;6361;52.120;5.108;2022-10-16T15:42:41;16.42;;;2.38;;
12591;SDS011;6361;52.120;5.108;2022-10-16T15:45:08;14.43;;;2.88;;
12591;SDS011;6361;52.120;5.108;2022-10-16T15:47:34;10.70;;;2.65;;
12591;SDS011;6361;52.120;5.108;2022-10-16T15:49:59;12.30;;;2.78;;
12591;SDS011;6361;52.120;5.108;2022-10-16T15:52:24;13.57;;;2.60;;
12591;SDS011;6361;52.120;5.108;2022-10-16T15:54:50;13.50;;;3.50;;
12591;SDS011;6361;52.120;5.108;2022-10-16T15:57:15;18.05;;;3.45;;
12591;SDS011;6361;52.120;5.108;2022-10-16T15:59:41;10.88;;;3.47;;
12591;SDS011;6361;52.120;5.108;2022-10-16T16:02:07;15.02;;;3.40;;
12591;SDS011;6361;52.120;5.108;2022-10-16T16:04:33;13.65;;;3.05;;
12591;SDS011;6361;52.120;5.108;2022-10-16T16:06:59;10.18;;;2.40;;
12591;SDS011;6361;52.120;5.108;2022-10-16T16:09:26;11.15;;;2.95;;
12591;SDS011;6361;52.120;5.108;2022-10-16T16:11:51;13.07;;;2.78;;
12591;SDS011;6361;52.120;5.108;2022-10-16T16:14:17;10.85;;;2.90;;
12591;SDS011;6361;52.120;5.108;2022-10-16T16:16:42;15.32;;;3.78;;
12591;SDS011;6361;52.120;5.108;2022-10-16T16:19:08;17.60;;;4.75;;
12591;SDS011;6361;52.120;5.108;2022-10-16T16:21:34;24.98;;;7.75;;
12591;SDS011;6361;52.120;5.108;2022-10-16T16:24:00;18.00;;;7.45;;
12591;SDS011;6361;52.120;5.108;2022-10-16T16:26:28;17.23;;;7.20;;
12591;SDS011;6361;52.120;5.108;2022-10-16T16:28:58;20.63;;;7.10;;
12591;SDS011;6361;52.120;5.108;2022-10-16T16:31:24;13.02;;;5.72;;
12591;SDS011;6361;52.120;5.108;2022-10-16T16:33:51;16.55;;;5.88;;
12591;SDS011;6361;52.120;5.108;2022-10-16T16:36:17;16.15;;;5.13;;
12591;SDS011;6361;52.120;5.108;2022-10-16T16:38:43;20.50;;;5.53;;
12591;SDS011;6361;52.120;5.108;2022-10-16T16:41:12;22.60;;;6.70;;
12591;SDS011;6361;52.120;5.108;2022-10-16T16:43:38;17.45;;;6.57;;
12591;SDS011;6361;52.120;5.108;2022-10-16T16:46:03;21.88;;;7.53;;
12591;SDS011;6361;52.120;5.108;2022-10-16T16:48:29;17.27;;;6.10;;
12591;SDS011;6361;52.120;5.108;2022-10-16T16:50:54;19.63;;;6.22;;
12591;SDS011;6361;52.120;5.108;2022-10-16T16:53:21;16.45;;;4.70;;
12591;SDS011;6361;52.120;5.108;2022-10-16T16:55:47;14.45;;;4.55;;
12591;SDS011;6361;52.120;5.108;2022-10-16T16:58:12;15.50;;;4.13;;
12591;SDS011;6361;52.120;5.108;2022-10-16T17:00:44;17.38;;;4.15;;
12591;SDS011;6361;52.120;5.108;2022-10-16T17:03:10;12.27;;;3.78;;
12591;SDS011;6361;52.120;5.108;2022-10-16T17:05:36;13.10;;;3.50;;
12591;SDS011;6361;52.120;5.108;2022-10-16T17:08:01;14.30;;;4.07;;
12591;SDS011;6361;52.120;5.108;2022-10-16T17:10:27;17.52;;;5.22;;
12591;SDS011;6361;52.120;5.108;2022-10-16T17:12:52;15.88;;;4.97;;
12591;SDS011;6361;52.120;5.108;2022-10-16T17:15:18;22.08;;;5.13;;
12591;SDS011;6361;52.120;5.108;2022-10-16T17:17:43;16.23;;;4.95;;
12591;SDS011;6361;52.120;5.108;2022-10-16T17:20:09;13.27;;;5.15;;
12591;SDS011;6361;52.120;5.108;2022-10-16T17:22:35;16.08;;;5.75;;
12591;SDS011;6361;52.120;5.108;2022-10-16T17:25:00;16.00;;;5.07;;
12591;SDS011;6361;52.120;5.108;2022-10-16T17:27:28;15.63;;;4.60;;
12591;SDS011;6361;52.120;5.108;2022-10-16T17:29:53;17.58;;;4.60;;
12591;SDS011;6361;52.120;5.108;2022-10-16T17:32:19;13.45;;;4.68;;